createdAt,value
2018-05-27T00:00:23.531Z,17.26
2018-05-27T00:02:50.978Z,17.18
2018-05-27T00:05:18.402Z,17.21
2018-05-27T00:07:45.855Z,17.12
2018-05-27T00:10:13.270Z,17.12
2018-05-27T00:12:40.725Z,17.18
2018-05-27T00:15:08.147Z,17.24
2018-05-27T00:17:35.601Z,17.23
2018-05-27T00:20:04.018Z,17.25
2018-05-27T00:22:31.475Z,17.09
2018-05-27T00:24:58.893Z,16.91
2018-05-27T00:27:26.354Z,16.94
2018-05-27T00:29:53.791Z,16.99
2018-05-27T00:32:21.253Z,16.68
2018-05-27T00:34:48.686Z,16.88
2018-05-27T00:37:16.117Z,16.90
2018-05-27T00:39:43.562Z,16.81
2018-05-27T00:42:11.012Z,16.78
2018-05-27T00:44:38.458Z,16.62
2018-05-27T00:47:05.882Z,16.66
2018-05-27T00:49:33.324Z,16.43
2018-05-27T00:52:00.753Z,16.46
2018-05-27T00:54:28.239Z,16.48
2018-05-27T00:56:55.670Z,16.53
2018-05-27T00:59:23.114Z,16.59
2018-05-27T01:01:50.537Z,16.67
2018-05-27T01:04:17.989Z,16.66
2018-05-27T01:06:45.405Z,16.78
2018-05-27T01:09:12.866Z,16.66
2018-05-27T01:11:40.290Z,16.70
2018-05-27T01:14:07.785Z,16.76
2018-05-27T01:16:35.205Z,16.81
2018-05-27T01:19:03.594Z,16.87
2018-05-27T01:21:31.049Z,16.89
2018-05-27T01:23:58.473Z,16.79
2018-05-27T01:26:25.917Z,16.81
2018-05-27T01:28:53.337Z,16.71
2018-05-27T01:31:20.794Z,16.74
2018-05-27T01:33:48.217Z,16.67
2018-05-27T01:36:15.660Z,16.56
2018-05-27T01:38:43.088Z,16.48
2018-05-27T01:41:10.533Z,16.50
2018-05-27T01:43:37.952Z,16.67
2018-05-27T01:46:05.414Z,16.83
2018-05-27T01:48:32.830Z,16.86
2018-05-27T01:51:00.249Z,16.75
2018-05-27T01:53:27.702Z,16.67
2018-05-27T01:55:56.062Z,16.74
2018-05-27T01:58:23.506Z,16.83
2018-05-27T02:00:51.249Z,16.87
2018-05-27T02:03:19.608Z,16.94
2018-05-27T02:05:47.037Z,16.90
2018-05-27T02:08:14.494Z,16.67
2018-05-27T02:10:42.819Z,16.62
2018-05-27T02:13:10.270Z,16.80
2018-05-27T02:15:37.693Z,16.90
2018-05-27T02:18:05.150Z,16.91
2018-05-27T02:20:32.570Z,16.70
2018-05-27T02:23:00.026Z,16.70
2018-05-27T02:25:27.459Z,16.96
2018-05-27T02:27:54.882Z,16.74
2018-05-27T02:30:22.330Z,16.89
2018-05-27T02:32:49.750Z,16.77
2018-05-27T02:35:17.205Z,16.85
2018-05-27T02:37:44.636Z,16.73
2018-05-27T02:40:12.086Z,16.59
2018-05-27T02:42:39.498Z,16.37
2018-05-27T02:45:06.955Z,16.40
2018-05-27T02:47:34.374Z,16.34
2018-05-27T02:50:01.846Z,16.17
2018-05-27T02:52:29.270Z,16.16
2018-05-27T02:54:56.719Z,16.20
2018-05-27T02:57:24.138Z,16.15
2018-05-27T02:59:51.593Z,16.27
2018-05-27T03:02:19.021Z,16.12
2018-05-27T03:04:46.486Z,16.28
2018-05-27T03:07:13.921Z,16.50
2018-05-27T03:09:41.370Z,16.64
2018-05-27T03:12:08.795Z,16.74
2018-05-27T03:14:36.214Z,16.86
2018-05-27T03:17:03.662Z,16.89
2018-05-27T03:19:31.081Z,16.90
2018-05-27T03:21:58.538Z,16.72
2018-05-27T03:24:26.959Z,16.72
2018-05-27T03:26:54.418Z,16.80
2018-05-27T03:29:21.841Z,16.72
2018-05-27T03:31:49.298Z,16.47
2018-05-27T03:34:16.725Z,16.61
2018-05-27T03:36:44.174Z,16.54
2018-05-27T03:39:11.598Z,16.37
2018-05-27T03:41:39.041Z,16.49
2018-05-27T03:44:06.469Z,16.76
2018-05-27T03:46:33.934Z,16.78
2018-05-27T03:49:01.361Z,16.98
2018-05-27T03:51:28.787Z,16.99
2018-05-27T03:53:56.251Z,16.89
2018-05-27T03:56:23.677Z,16.66
2018-05-27T03:58:52.088Z,16.84
2018-05-27T04:01:19.517Z,16.72
2018-05-27T04:06:55.511Z,16.86
2018-05-27T04:09:22.965Z,16.91
2018-05-27T04:11:50.378Z,17.04
2018-05-27T04:14:17.834Z,16.96
2018-05-27T04:16:45.262Z,16.97
2018-05-27T04:19:12.710Z,17.05
2018-05-27T04:21:40.133Z,17.11
2018-05-27T04:24:07.593Z,17.22
2018-05-27T04:26:35.012Z,17.21
2018-05-27T04:29:02.455Z,17.04
2018-05-27T04:31:29.875Z,16.80
2018-05-27T04:33:57.322Z,16.79
2018-05-27T04:36:26.761Z,16.75
2018-05-27T04:38:54.193Z,17.05
2018-05-27T04:41:21.624Z,16.93
2018-05-27T04:43:49.046Z,16.89
2018-05-27T04:46:16.489Z,17.05
2018-05-27T04:48:43.907Z,16.98
2018-05-27T04:51:11.369Z,17.26
2018-05-27T04:53:38.782Z,17.18
2018-05-27T04:56:06.229Z,17.03
2018-05-27T04:58:33.649Z,17.30
2018-05-27T05:01:01.113Z,17.37
2018-05-27T05:03:28.549Z,17.22
2018-05-27T05:05:56.016Z,17.02
2018-05-27T05:08:23.876Z,17.30
2018-05-27T05:10:51.313Z,17.54
2018-05-27T05:13:18.740Z,17.46
2018-05-27T05:15:46.178Z,17.98
2018-05-27T05:18:14.062Z,17.96
2018-05-27T05:20:41.481Z,17.92
2018-05-27T05:23:08.929Z,17.86
2018-05-27T05:25:37.296Z,17.95
2018-05-27T05:28:04.741Z,18.12
2018-05-27T05:30:32.178Z,18.11
2018-05-27T05:32:59.622Z,18.28
2018-05-27T05:35:27.693Z,18.28
2018-05-27T05:37:55.133Z,18.15
2018-05-27T05:40:22.560Z,18.38
2018-05-27T05:42:50.025Z,18.00
2018-05-27T05:45:17.441Z,18.06
2018-05-27T05:47:45.860Z,18.43
2018-05-27T05:50:13.289Z,18.24
2018-05-27T05:52:40.733Z,18.25
2018-05-27T05:55:08.150Z,18.41
2018-05-27T05:57:36.602Z,18.53
2018-05-27T06:00:04.126Z,18.67
2018-05-27T06:02:31.601Z,18.84
2018-05-27T06:04:59.021Z,19.38
2018-05-27T06:07:26.459Z,19.00
2018-05-27T06:09:53.907Z,18.87
2018-05-27T06:12:21.339Z,18.86
2018-05-27T06:14:48.792Z,18.86
2018-05-27T06:17:17.162Z,18.85
2018-05-27T06:19:44.608Z,18.56
2018-05-27T06:22:12.044Z,18.56
2018-05-27T06:24:39.489Z,18.80
2018-05-27T06:27:06.937Z,18.67
2018-05-27T06:29:34.392Z,18.66
2018-05-27T06:32:01.819Z,18.40
2018-05-27T06:34:29.267Z,18.65
2018-05-27T06:36:56.685Z,19.10
2018-05-27T06:39:24.126Z,19.42
2018-05-27T06:41:52.442Z,18.78
2018-05-27T06:44:19.889Z,19.01
2018-05-27T06:46:47.314Z,18.99
2018-05-27T06:49:14.773Z,18.90
2018-05-27T06:51:43.101Z,18.67
2018-05-27T06:54:11.490Z,18.88
2018-05-27T06:56:38.906Z,19.02
2018-05-27T06:59:06.378Z,18.94
2018-05-27T07:01:33.801Z,19.14
2018-05-27T07:04:01.222Z,19.55
2018-05-27T07:06:28.674Z,19.21
2018-05-27T07:08:56.115Z,19.30
2018-05-27T07:11:23.565Z,19.84
2018-05-27T07:13:50.985Z,19.29
2018-05-27T07:16:18.438Z,19.56
2018-05-27T07:18:46.845Z,19.53
2018-05-27T07:21:14.291Z,19.78
2018-05-27T07:23:41.717Z,19.70
2018-05-27T07:26:09.159Z,19.75
2018-05-27T07:28:36.578Z,19.34
2018-05-27T07:31:04.026Z,19.18
2018-05-27T07:33:31.445Z,19.32
2018-05-27T07:35:58.886Z,19.02
2018-05-27T07:38:26.305Z,19.36
2018-05-27T07:40:53.749Z,19.20
2018-05-27T07:43:21.174Z,19.21
2018-05-27T07:45:48.639Z,19.25
2018-05-27T07:48:16.066Z,19.22
2018-05-27T07:50:43.493Z,19.18
2018-05-27T07:53:10.944Z,19.36
2018-05-27T07:55:38.357Z,19.59
2018-05-27T07:58:05.797Z,19.80
2018-05-27T08:00:33.678Z,19.65
2018-05-27T08:03:01.117Z,19.33
2018-05-27T08:05:28.538Z,19.24
2018-05-27T08:07:56.774Z,19.75
2018-05-27T08:10:24.185Z,19.46
2018-05-27T08:12:51.625Z,19.33
2018-05-27T08:15:19.058Z,19.34
2018-05-27T08:17:46.506Z,19.53
2018-05-27T08:20:13.949Z,19.65
2018-05-27T08:22:41.386Z,19.48
2018-05-27T08:25:09.777Z,20.01
2018-05-27T08:27:37.174Z,20.71
2018-05-27T08:30:04.586Z,20.65
2018-05-27T08:32:32.084Z,20.40
2018-05-27T08:34:59.537Z,19.82
2018-05-27T08:37:26.929Z,19.83
2018-05-27T08:39:54.369Z,19.36
2018-05-27T08:42:21.787Z,19.74
2018-05-27T08:44:49.241Z,19.91
2018-05-27T08:47:16.653Z,19.63
2018-05-27T08:49:46.046Z,20.14
2018-05-27T08:52:13.469Z,20.34
2018-05-27T08:54:40.911Z,20.08
2018-05-27T08:57:13.162Z,20.30
2018-05-27T08:59:40.613Z,20.73
2018-05-27T09:02:08.021Z,20.86
2018-05-27T09:04:36.416Z,20.47
2018-05-27T09:07:03.844Z,20.44
2018-05-27T09:09:32.256Z,20.87
2018-05-27T09:11:59.689Z,20.53
2018-05-27T09:14:27.134Z,20.58
2018-05-27T09:16:55.536Z,20.61
2018-05-27T09:19:22.973Z,20.77
2018-05-27T09:21:50.387Z,20.40
2018-05-27T09:24:18.829Z,20.72
2018-05-27T09:26:46.260Z,20.87
2018-05-27T09:29:13.710Z,20.93
2018-05-27T09:31:44.356Z,21.15
2018-05-27T09:34:12.754Z,21.03
2018-05-27T09:36:40.187Z,21.15
2018-05-27T09:39:07.649Z,21.47
2018-05-27T09:41:35.046Z,21.55
2018-05-27T09:44:02.486Z,20.84
2018-05-27T09:46:29.946Z,20.47
2018-05-27T09:48:59.321Z,20.08
2018-05-27T09:51:26.777Z,20.30
2018-05-27T09:54:01.562Z,20.13
2018-05-27T09:56:30.925Z,19.62
2018-05-27T09:58:58.352Z,19.71
2018-05-27T10:01:25.795Z,19.84
2018-05-27T10:03:53.213Z,20.01
2018-05-27T10:06:20.658Z,20.04
2018-05-27T10:08:49.002Z,19.34
2018-05-27T10:11:18.436Z,19.65
2018-05-27T10:13:45.862Z,19.30
2018-05-27T10:16:16.531Z,19.42
2018-05-27T10:18:43.948Z,19.24
2018-05-27T10:21:11.366Z,19.27
2018-05-27T10:23:38.809Z,19.10
2018-05-27T10:26:06.371Z,19.07
2018-05-27T10:28:33.685Z,19.06
2018-05-27T10:31:01.101Z,19.10
2018-05-27T10:36:19.839Z,18.72
2018-05-27T10:38:47.294Z,18.88
2018-05-27T10:41:14.719Z,18.78
2018-05-27T10:43:42.173Z,18.57
2018-05-27T10:46:09.605Z,18.72
2018-05-27T10:48:37.053Z,18.89
2018-05-27T10:51:04.490Z,18.71
2018-05-27T10:53:31.934Z,18.82
2018-05-27T10:55:59.358Z,18.96
2018-05-27T10:58:26.826Z,19.14
2018-05-27T11:00:54.237Z,19.34
2018-05-27T11:03:21.678Z,19.33
2018-05-27T11:05:50.166Z,19.22
2018-05-27T11:08:17.570Z,19.22
2018-05-27T11:10:45.030Z,19.41
2018-05-27T11:13:12.445Z,19.69
2018-05-27T11:15:39.893Z,19.25
2018-05-27T11:18:07.319Z,19.73
2018-05-27T11:20:35.697Z,19.82
2018-05-27T11:23:05.086Z,19.53
2018-05-27T11:25:32.538Z,19.86
2018-05-27T11:27:59.953Z,19.91
2018-05-27T11:30:28.321Z,19.33
2018-05-27T11:32:56.752Z,19.11
2018-05-27T11:35:24.205Z,19.03
2018-05-27T11:37:51.630Z,19.36
2018-05-27T11:40:21.079Z,19.13
2018-05-27T11:42:48.507Z,19.09
2018-05-27T11:45:15.920Z,18.81
2018-05-27T11:47:43.377Z,18.70
2018-05-27T12:36:03.646Z,23.53
2018-05-27T12:38:31.098Z,23.23
2018-05-27T12:40:58.523Z,23.44
2018-05-27T12:43:25.975Z,24.05
2018-05-27T12:45:54.361Z,24.03
2018-05-27T12:48:21.834Z,24.27
2018-05-27T12:50:50.165Z,23.19
2018-05-27T12:53:17.611Z,23.67
2018-05-27T12:55:46.025Z,24.00
2018-05-27T12:58:14.433Z,23.86
2018-05-27T13:00:41.860Z,22.93
2018-05-27T13:03:09.316Z,22.87
2018-05-27T13:05:36.760Z,22.51
2018-05-27T13:08:04.181Z,22.08
2018-05-27T13:10:31.638Z,22.36
2018-05-27T13:12:59.059Z,21.67
2018-05-27T13:15:26.515Z,21.62
2018-05-27T13:17:54.881Z,21.46
2018-05-27T13:20:23.285Z,21.42
2018-05-27T13:22:50.720Z,21.36
2018-05-27T13:25:18.169Z,21.64
2018-05-27T13:27:45.606Z,21.15
2018-05-27T13:30:13.062Z,21.27
2018-05-27T13:32:40.518Z,21.15
2018-05-27T13:35:08.025Z,21.58
2018-05-27T13:37:35.459Z,21.58
2018-05-27T13:40:03.890Z,21.42
2018-05-27T13:42:31.317Z,21.63
2018-05-27T13:44:58.777Z,21.50
2018-05-27T13:47:26.202Z,21.29
2018-05-27T13:49:53.667Z,22.49
2018-05-27T13:52:21.117Z,23.41
2018-05-27T13:54:48.546Z,23.45
2018-05-27T13:57:16.001Z,23.70
2018-05-27T13:59:43.419Z,23.78
2018-05-27T14:02:10.866Z,24.67
2018-05-27T14:04:38.297Z,23.86
2018-05-27T14:07:05.754Z,24.94
2018-05-27T14:09:33.181Z,25.30
2018-05-27T14:12:00.638Z,26.52
2018-05-27T14:14:28.061Z,27.40
2018-05-27T14:16:55.517Z,28.06
2018-05-27T14:19:22.938Z,26.48
2018-05-27T14:21:51.346Z,25.45
2018-05-27T14:24:18.818Z,25.55
2018-05-27T14:26:46.239Z,25.83
2018-05-27T14:29:13.657Z,25.84
2018-05-27T14:31:41.071Z,28.46
2018-05-27T14:34:08.535Z,27.34
2018-05-27T14:36:35.957Z,24.14
2018-05-27T14:39:03.414Z,23.66
2018-05-27T14:41:30.840Z,23.36
2018-05-27T14:43:58.294Z,22.93
2018-05-27T14:46:25.718Z,22.38
2018-05-27T14:48:53.165Z,21.54
2018-05-27T14:51:22.537Z,21.47
2018-05-27T14:53:49.995Z,21.41
2018-05-27T14:56:17.426Z,21.32
2018-05-27T14:58:44.882Z,22.01
2018-05-27T15:01:12.310Z,21.58
2018-05-27T15:03:39.758Z,22.54
2018-05-27T15:06:07.194Z,22.80
2018-05-27T15:08:34.657Z,21.86
2018-05-27T15:11:02.102Z,22.13
2018-05-27T15:13:29.548Z,21.24
2018-05-27T15:15:57.006Z,21.01
2018-05-27T15:18:24.460Z,20.88
2018-05-27T15:20:51.906Z,20.35
2018-05-27T15:23:19.334Z,20.49
2018-05-27T15:25:47.769Z,19.81
2018-05-27T15:28:15.189Z,20.18
2018-05-27T15:30:42.658Z,20.14
2018-05-27T15:33:11.042Z,20.26
2018-05-27T15:35:39.454Z,19.83
2018-05-27T15:38:07.810Z,19.57
2018-05-27T15:40:35.269Z,19.38
2018-05-27T15:43:03.621Z,19.51
2018-05-27T15:45:31.077Z,19.62
2018-05-27T15:47:58.501Z,19.54
2018-05-27T15:50:25.961Z,19.51
2018-05-27T15:52:53.393Z,19.16
2018-05-27T15:55:20.849Z,19.52
2018-05-27T15:57:48.283Z,19.63
2018-05-27T16:00:15.729Z,19.43
2018-05-27T16:02:43.149Z,19.09
2018-05-27T16:05:10.578Z,19.52
2018-05-27T16:07:38.965Z,19.58
2018-05-27T16:10:06.414Z,19.39
2018-05-27T16:12:33.874Z,19.44
2018-05-27T16:15:01.297Z,19.95
2018-05-27T16:17:28.750Z,20.00
2018-05-27T16:19:58.071Z,20.02
2018-05-27T16:22:25.526Z,19.81
2018-05-27T16:24:53.886Z,19.69
2018-05-27T16:27:21.342Z,19.60
2018-05-27T16:29:48.768Z,19.89
2018-05-27T16:32:16.229Z,19.44
2018-05-27T16:34:43.669Z,19.59
2018-05-27T16:37:12.134Z,19.92
2018-05-27T16:39:39.552Z,20.10
2018-05-27T16:42:06.978Z,19.79
2018-05-27T16:44:34.429Z,20.11
2018-05-27T16:47:06.937Z,19.82
2018-05-27T16:49:34.378Z,19.64
2018-05-27T16:52:01.805Z,19.78
2018-05-27T16:54:29.250Z,19.45
2018-05-27T16:56:56.665Z,19.32
2018-05-27T16:59:24.121Z,19.34
2018-05-27T17:01:52.481Z,19.25
2018-05-27T17:04:20.903Z,19.26
2018-05-27T17:06:51.486Z,20.39
2018-05-27T17:09:18.960Z,19.92
2018-05-27T17:11:47.346Z,20.07
2018-05-27T17:14:15.766Z,19.99
2018-05-27T17:16:44.081Z,19.71
2018-05-27T17:19:12.511Z,19.83
2018-05-27T17:21:39.929Z,19.81
2018-05-27T17:24:07.387Z,19.71
2018-05-27T17:26:34.820Z,19.44
2018-05-27T17:29:02.313Z,18.89
2018-05-27T17:31:29.778Z,18.83
2018-05-27T17:33:57.221Z,18.94
2018-05-27T17:36:24.670Z,18.91
2018-05-27T17:38:52.107Z,19.06
2018-05-27T17:41:20.530Z,19.10
2018-05-27T17:43:49.911Z,18.91
2018-05-27T17:46:17.371Z,18.98
2018-05-27T17:48:44.822Z,18.68
2018-05-27T17:51:13.229Z,18.28
2018-05-27T17:53:40.655Z,18.28
2018-05-27T17:56:08.121Z,17.81
2018-05-27T17:58:35.550Z,17.81
2018-05-27T18:01:03.014Z,17.49
2018-05-27T18:03:32.438Z,17.22
2018-05-27T18:05:59.889Z,17.26
2018-05-27T18:08:27.329Z,17.26
2018-05-27T18:10:55.695Z,17.33
2018-05-27T18:13:23.123Z,17.26
2018-05-27T18:15:50.831Z,17.43
2018-05-27T18:18:22.794Z,17.52
2018-05-27T18:20:51.217Z,17.44
2018-05-27T18:23:20.587Z,17.19
2018-05-27T18:25:48.014Z,17.01
2018-05-27T18:28:15.480Z,16.86
2018-05-27T18:30:42.917Z,16.88
2018-05-27T18:33:10.369Z,17.10
2018-05-27T18:35:37.798Z,17.20
2018-05-27T18:38:05.252Z,17.22
2018-05-27T18:40:32.682Z,17.07
2018-05-27T18:43:01.051Z,16.98
2018-05-27T18:45:28.487Z,16.88
2018-05-27T18:47:56.835Z,16.84
2018-05-27T18:50:24.250Z,16.77
2018-05-27T18:52:51.706Z,16.88
2018-05-27T18:55:22.821Z,16.89
2018-05-27T18:57:50.282Z,17.08
2018-05-27T19:00:17.721Z,17.05
2018-05-27T19:02:45.169Z,17.09
2018-05-27T19:05:12.591Z,17.02
2018-05-27T19:07:40.045Z,16.73
2018-05-27T19:10:07.466Z,16.99
2018-05-27T19:12:34.897Z,16.75
2018-05-27T19:15:02.374Z,16.82
2018-05-27T19:17:29.829Z,16.50
2018-05-27T19:22:55.285Z,16.31
2018-05-27T19:25:27.197Z,16.32
2018-05-27T19:27:54.634Z,16.35
2018-05-27T19:30:22.096Z,16.30
2018-05-27T19:32:49.523Z,16.13
2018-05-27T19:35:17.878Z,16.35
2018-05-27T19:37:46.966Z,16.11
2018-05-27T19:40:14.421Z,16.26
2018-05-27T19:42:41.852Z,16.19
2018-05-27T19:45:09.319Z,16.07
2018-05-27T19:47:36.741Z,16.19
2018-05-27T19:50:04.185Z,16.23
2018-05-27T19:52:31.611Z,16.04
2018-05-27T19:55:02.881Z,16.13
2018-05-27T19:57:31.311Z,16.17
2018-05-27T19:59:58.750Z,16.16
2018-05-27T20:02:26.173Z,16.25
2018-05-27T20:04:53.634Z,16.19
2018-05-27T20:07:21.061Z,16.28
2018-05-27T20:09:48.534Z,16.41
2018-05-27T20:12:15.955Z,16.17
2018-05-27T20:14:43.382Z,16.38
2018-05-27T20:17:10.881Z,16.15
2018-05-27T20:19:38.298Z,16.26
2018-05-27T20:22:06.770Z,16.31
2018-05-27T20:24:34.190Z,16.36
2018-05-27T20:27:01.672Z,16.42
2018-05-27T20:29:29.130Z,16.41
2018-05-27T20:31:56.574Z,16.37
2018-05-27T20:34:24.006Z,16.39
2018-05-27T20:36:51.453Z,16.34
2018-05-27T20:39:19.854Z,16.46
2018-05-27T20:41:47.309Z,16.46
2018-05-27T20:44:18.459Z,16.34
2018-05-27T20:46:45.910Z,16.45
2018-05-27T20:49:13.350Z,16.46
2018-05-27T20:51:40.809Z,16.58
2018-05-27T20:54:08.239Z,16.74
2018-05-27T20:56:36.743Z,16.80
2018-05-27T20:59:04.132Z,16.85
2018-05-27T21:01:31.558Z,16.76
2018-05-27T21:03:59.066Z,16.79
2018-05-27T21:06:26.457Z,16.87
2018-05-27T21:08:57.358Z,16.84
2018-05-27T21:11:26.690Z,16.79
2018-05-27T21:13:54.138Z,16.90
2018-05-27T21:16:21.586Z,16.90
2018-05-27T21:18:49.079Z,16.96
2018-05-27T21:21:16.506Z,16.98
2018-05-27T21:23:43.961Z,16.99
2018-05-27T21:26:11.399Z,16.72
2018-05-27T21:28:38.919Z,16.74
2018-05-27T21:31:06.343Z,16.82
2018-05-27T21:33:35.403Z,16.80
2018-05-27T21:36:07.649Z,16.71
2018-05-27T21:38:35.151Z,16.82
2018-05-27T21:41:02.587Z,16.68
2018-05-27T21:43:30.955Z,16.80
2018-05-27T21:45:58.406Z,16.73
2018-05-27T21:48:26.726Z,16.69
2018-05-27T21:50:55.177Z,16.81
2018-05-27T21:53:22.604Z,16.93
2018-05-27T21:55:50.054Z,16.95
2018-05-27T21:58:17.482Z,16.86
2018-05-27T22:00:44.929Z,16.90
2018-05-27T22:03:12.356Z,17.05
2018-05-27T22:05:39.814Z,17.06
2018-05-27T22:08:07.287Z,17.13
2018-05-27T22:10:34.709Z,16.81
2018-05-27T22:13:02.161Z,16.76
2018-05-27T22:15:29.613Z,16.86
2018-05-27T22:17:57.046Z,16.83
2018-05-27T22:20:24.471Z,16.73
2018-05-27T22:22:51.937Z,16.79
2018-05-27T22:25:19.365Z,16.91
2018-05-27T22:27:46.854Z,16.92
2018-05-27T22:30:14.243Z,16.82
2018-05-27T22:32:41.691Z,16.84
2018-05-27T22:35:09.124Z,16.82
2018-05-27T22:37:36.581Z,16.72
2018-05-27T22:40:04.005Z,16.82
2018-05-27T22:42:31.464Z,16.79
2018-05-27T22:44:58.892Z,16.79
2018-05-27T22:47:26.363Z,16.80
2018-05-27T22:49:53.795Z,16.59
2018-05-27T22:52:21.247Z,16.68
2018-05-27T22:54:48.697Z,16.74
2018-05-27T22:57:16.121Z,16.63
2018-05-27T22:59:43.578Z,16.76
2018-05-27T23:02:10.998Z,16.84
2018-05-27T23:04:38.459Z,16.80
2018-05-27T23:07:05.914Z,16.89
2018-05-27T23:09:33.369Z,16.78
2018-05-27T23:12:00.810Z,16.73
2018-05-27T23:14:28.273Z,16.89
2018-05-27T23:16:55.686Z,17.06
2018-05-27T23:19:23.159Z,17.11
2018-05-27T23:21:50.582Z,17.11
2018-05-27T23:24:18.937Z,16.83
2018-05-27T23:26:47.274Z,16.94
2018-05-27T23:29:14.729Z,17.02
2018-05-27T23:31:42.164Z,16.96
2018-05-27T23:34:09.589Z,17.12
2018-05-27T23:36:37.050Z,17.09
2018-05-27T23:39:04.488Z,17.15
2018-05-27T23:41:33.829Z,17.12
2018-05-27T23:44:01.260Z,17.12
2018-05-27T23:46:28.719Z,17.10
2018-05-27T23:48:56.134Z,17.22
2018-05-27T23:51:23.585Z,17.13
2018-05-27T23:53:51.014Z,17.21
2018-05-27T23:56:18.469Z,17.17
2018-05-27T23:58:45.901Z,17.10
